Latest Weather Observations for Perth Airport

IDW60801

Issued at 9:33 pm WST Friday 30 January 2015 (issued every 30 minutes, with the page automatically refreshed every 10 minutes)

About weather observations | Map of weather stations | Latest weather observations for WA | Other Formats
Station Details ID: 009021 Name: PERTH AIRPORT Lat: -31.93 Lon: 115.98 Height: 15.4 m
Data from the previous 72 hours. | See also: Recent months at Perth Airport
Date/Time
WST
Temp
°C
App
Temp
°C
Dew
Point
Rel
Hum
%
Delta-T
°C
Wind Press
QNH
hPa
Press
MSL
hPa
Rain
since 9 am
mm
Dir
 
Spd
km/h
Gust
km/h
Spd
kts
Gust
kts
30/09:00pm 30.2 25.7 8.5 25 12.0 SE 22 41 12 22 1011.1 1011.0 0.0
30/08:30pm 29.0 26.6 11.5 33 10.1 ESE 15 17 8 9 1010.7 - 0.0
30/08:00pm 28.9 27.3 11.6 34 10.0 ESE 11 13 6 7 1010.4 - 0.0
30/07:30pm 30.3 28.5 12.0 32 10.7 E 13 15 7 8 1010.2 - 0.0
30/07:00pm 31.0 28.5 10.9 29 11.6 ESE 15 19 8 10 1010.1 - 0.0
30/06:30pm 31.8 28.9 9.6 25 12.6 E 15 20 8 11 1010.0 - 0.0
30/05:30pm 33.7 29.1 6.6 18 14.8 ESE 20 26 11 14 1009.6 - 0.0
30/05:00pm 34.3 27.8 6.5 18 15.2 E 30 39 16 21 1009.9 - 0.0
30/04:30pm 34.3 29.8 6.8 18 15.1 E 20 33 11 18 1009.9 - 0.0
30/04:00pm 34.2 31.8 10.2 23 13.9 NNW 13 17 7 9 1009.9 - 0.0
30/03:30pm 33.9 30.9 7.9 20 14.5 NNE 13 19 7 10 1009.8 - 0.0
30/03:00pm 33.7 28.9 7.2 19 14.6 ENE 22 33 12 18 1010.1 1010.0 0.0
30/02:30pm 33.9 27.6 7.6 19 14.6 NE 30 35 16 19 1010.3 - 0.0
30/02:00pm 33.6 27.1 8.0 20 14.3 E 32 39 17 21 1010.2 - 0.0
30/01:30pm 34.5 26.3 8.1 19 14.8 E 41 56 22 30 1010.4 - 0.0
30/01:04pm 34.1 27.0 8.0 20 14.6 E 35 54 19 29 1010.5 - 0.0
30/01:00pm 33.9 26.8 8.2 20 14.4 E 35 50 19 27 1010.5 - 0.0
30/12:54pm 33.8 28.1 8.3 20 14.3 E 28 50 15 27 1010.6 - 0.0
30/12:30pm 32.7 27.7 8.1 21 13.7 ENE 24 33 13 18 1010.9 - 0.0
30/12:00pm 33.2 26.6 6.2 18 14.6 E 30 39 16 21 1011.3 1011.2 0.0
30/11:30am 33.7 28.0 6.6 18 14.8 E 26 37 14 20 1011.2 - 0.0
30/11:00am 32.6 26.6 7.0 20 14.0 E 28 35 15 19 1011.0 - 0.0
30/10:00am 29.1 27.1 7.1 25 11.8 E 7 19 4 10 1011.3 - 0.0
30/09:00am 26.7 19.6 5.3 25 11.0 E 32 43 17 23 1011.1 1011.0 0.2
30/08:30am 26.8 18.3 5.1 25 11.1 E 39 48 21 26 1010.6 - 0.2
30/08:27am 26.8 18.3 5.1 25 11.1 E 39 48 21 26 1010.7 - 0.2
30/08:00am 26.7 23.2 5.6 26 10.9 SE 13 32 7 17 1010.9 - 0.2
30/07:30am 26.5 20.5 5.2 25 10.9 E 26 37 14 20 1010.8 - 0.2
30/07:00am 26.4 20.9 5.7 26 10.7 E 24 37 13 20 1010.5 - 0.2
30/06:30am 25.9 18.8 5.7 27 10.4 E 32 39 17 21 1010.4 - 0.2
30/05:30am 26.1 24.6 6.6 28 10.2 SE 4 11 2 6 1010.1 - 0.2
30/05:00am 25.9 22.8 5.4 27 10.5 S 11 19 6 10 1009.6 - 0.2
30/04:30am 24.4 21.2 7.0 32 9.1 SE 13 24 7 13 1009.4 - 0.2
30/04:00am 24.1 21.2 8.1 36 8.5 ESE 13 17 7 9 1009.3 - 0.2
30/03:30am 21.6 21.3 11.6 53 5.6 NNE 4 9 2 5 1009.2 - 0.2
30/03:00am 23.2 20.5 10.5 44 7.0 SSE 15 19 8 10 1009.3 1009.2 0.2
30/02:30am 24.5 23.0 10.7 41 7.7 SSW 9 13 5 7 1009.3 - 0.2
30/02:00am 23.6 22.7 12.6 50 6.3 S 9 11 5 6 1009.5 - 0.2
30/01:30am 25.2 23.9 12.6 45 7.3 SSW 11 15 6 8 1009.9 - 0.2
30/01:00am 25.1 25.3 11.8 43 7.6 ENE 2 7 1 4 1009.8 - 0.2
30/12:30am 25.4 24.4 12.4 44 7.5 ENE 9 15 5 8 1009.8 - 0.2
 
Date/Time
WST
Temp
°C
App
Temp
°C
Dew
Point
Rel
Hum
%
Delta-T
°C
Wind Press
QNH
hPa
Press
MSL
hPa
Rain
since 9 am
mm
Dir
 
Spd
km/h
Gust
km/h
Spd
kts
Gust
kts
29/11:30pm 27.6 25.6 11.4 36 9.3 N 13 19 7 10 1010.2 - 0.2
29/11:00pm 28.2 24.4 9.8 31 10.3 N 20 24 11 13 1010.1 - 0.2
29/10:30pm 28.4 25.8 10.6 33 10.1 SSE 15 22 8 12 1009.0 - 0.2
29/10:00pm 28.3 25.7 10.7 33 10.0 SE 15 20 8 11 1008.9 - 0.2
29/09:30pm 28.7 25.7 11.8 35 9.8 ESE 19 26 10 14 1009.1 - 0.2
29/09:00pm 28.4 27.3 15.3 45 8.0 S 15 19 8 10 1008.5 1008.4 0.2
29/08:30pm 29.2 27.0 15.0 42 8.7 S 20 28 11 15 1008.2 - 0.2
29/08:00pm 30.2 27.1 14.4 38 9.6 S 24 30 13 16 1007.9 - 0.2
29/07:30pm 30.8 27.5 15.0 38 9.7 S 26 33 14 18 1007.7 - 0.2
29/07:00pm 31.5 27.5 14.1 34 10.6 SSW 28 35 15 19 1007.3 - 0.2
29/06:30pm 31.8 28.2 12.9 31 11.3 SSW 24 32 13 17 1007.1 - 0.2
29/06:00pm 32.3 27.5 13.0 31 11.6 SSW 30 39 16 21 1006.8 1006.7 0.2
29/05:30pm 32.8 28.2 14.6 33 11.2 SW 32 37 17 20 1006.5 - 0.2
29/05:00pm 33.3 28.5 14.0 31 11.8 SW 32 37 17 20 1006.3 - 0.2
29/04:30pm 33.7 29.6 14.8 32 11.7 SW 30 37 16 20 1006.2 - 0.2
29/04:00pm 36.0 31.4 10.9 22 14.8 SW 26 37 14 20 1006.3 - 0.2
29/03:30pm 36.7 31.5 8.8 18 16.0 SW 26 35 14 19 1006.6 - 0.2
29/03:00pm 37.0 33.3 10.3 20 15.7 SSW 20 28 11 15 1006.8 1006.7 0.2
29/02:30pm 34.7 31.0 11.6 24 13.7 S 22 33 12 18 1007.4 - 0.2
29/02:00pm 33.5 28.5 13.4 29 12.2 S 32 39 17 21 1008.0 - 0.2
29/01:49pm 32.6 28.3 14.3 33 11.2 S 30 35 16 19 1008.1 - 0.2
29/01:30pm 31.3 29.6 18.1 45 8.5 S 24 30 13 16 1008.3 - 0.2
29/01:15pm 27.2 29.7 21.7 72 3.7 WSW 11 20 6 11 1008.4 - 0.0
29/01:00pm 26.3 25.9 21.7 76 3.1 SSE 26 30 14 16 1008.1 - 0.0
29/12:30pm 27.1 28.2 20.4 66 4.4 SW 15 19 8 10 1009.0 - 0.0
29/12:00pm 29.4 29.4 18.0 50 7.3 SSW 15 20 8 11 1009.1 1009.0 0.0
29/11:30am 29.0 29.4 17.3 49 7.4 SSE 11 13 6 7 1009.6 - 0.0
29/11:00am 29.3 28.8 16.9 47 7.8 SSW 15 20 8 11 1009.3 - 0.0
29/10:55am 29.5 28.7 17.2 47 7.8 SSW 17 24 9 13 1009.1 - 0.0
29/10:30am 29.0 28.8 16.7 47 7.7 S 13 17 7 9 1009.4 - 0.0
29/10:00am 28.0 28.8 18.1 55 6.3 S 11 15 6 8 1009.5 - 0.0
29/09:30am 25.6 26.6 20.2 72 3.5 WSW 15 19 8 10 1009.5 - 0.0
29/09:00am 24.9 25.8 20.8 78 2.7 SW 17 28 9 15 1009.3 1009.2 0.0
29/08:30am 25.8 25.5 19.1 66 4.3 WSW 19 26 10 14 1009.3 - 0.0
29/08:00am 24.8 26.0 19.0 70 3.7 E 11 17 6 9 1008.9 - 0.0
29/07:30am 24.9 24.8 18.8 69 3.9 W 17 26 9 14 1009.3 - 0.0
29/07:00am 26.5 25.5 14.5 47 7.2 WSW 13 17 7 9 1008.6 - 0.0
29/06:30am 27.4 25.6 10.8 35 9.4 W 11 19 6 10 1008.3 - 0.0
29/06:00am 27.7 21.3 8.5 30 10.5 ENE 32 33 17 18 1007.2 1007.1 0.0
29/05:30am 26.9 21.8 11.8 39 8.7 ESE 30 37 16 20 1007.3 - 0.0
29/05:00am 26.7 24.0 13.5 44 7.8 S 20 30 11 16 1008.2 - 0.0
29/04:30am 24.0 23.1 18.1 69 3.7 NW 20 28 11 15 1008.2 - 0.0
29/04:00am 23.3 23.7 19.1 77 2.7 E 15 17 8 9 1007.4 - 0.0
29/03:30am 23.8 23.7 18.8 73 3.2 S 17 19 9 10 1007.4 - 0.0
29/03:00am 24.2 24.0 19.4 74 3.1 WSW 19 24 10 13 1007.4 1007.3 0.0
29/02:30am 22.7 23.1 18.9 79 2.4 NW 15 20 8 11 1007.4 - 0.0
29/02:00am 22.5 22.9 16.2 67 3.8 N 9 11 5 6 1007.1 - 0.0
29/01:30am 22.6 23.7 18.0 75 2.9 E 9 11 5 6 1007.2 - 0.0
29/01:00am 23.0 24.0 17.7 72 3.3 WNW 9 11 5 6 1007.2 - 0.0
29/12:30am 24.0 25.7 18.1 69 3.7 SSW 6 7 3 4 1006.9 - 0.0
29/12:00am 24.7 25.1 17.3 63 4.6 W 11 15 6 8 1006.9 1006.8 0.0
 
Date/Time
WST
Temp
°C
App
Temp
°C
Dew
Point
Rel
Hum
%
Delta-T
°C
Wind Press
QNH
hPa
Press
MSL
hPa
Rain
since 9 am
mm
Dir
 
Spd
km/h
Gust
km/h
Spd
kts
Gust
kts
28/11:54pm 25.2 26.3 17.9 64 4.6 WNW 9 15 5 8 1006.8 - 0.0
28/11:30pm 25.2 26.9 17.2 61 5.0 WNW 4 7 2 4 1006.8 - 0.0
28/11:00pm 26.9 27.3 17.2 55 6.1 WSW 11 15 6 8 1006.5 - 0.0
28/10:30pm 28.7 29.0 16.9 48 7.4 SSW 11 13 6 7 1006.3 - 0.0
28/10:00pm 29.3 29.3 17.1 47 7.7 SSW 13 15 7 8 1006.4 - 0.0
28/09:30pm 29.9 29.6 16.5 44 8.4 SSW 13 15 7 8 1006.3 - 0.0
28/09:00pm 29.9 29.6 16.5 44 8.4 SSW 13 17 7 9 1006.5 1006.4 0.0
28/08:30pm 30.0 30.0 16.2 43 8.6 W 11 15 6 8 1006.6 - 0.0
28/08:00pm 30.3 30.1 15.6 41 9.1 W 11 13 6 7 1006.4 - 0.0
28/07:30pm 30.8 30.4 16.3 41 9.1 W 13 22 7 12 1006.1 - 0.0
28/07:00pm 32.6 31.2 14.6 33 11.1 WSW 15 20 8 11 1005.5 - 0.0
28/06:30pm 32.9 31.4 15.2 34 11.0 WSW 17 22 9 12 1005.2 - 0.0
28/06:00pm 33.0 30.0 14.9 33 11.2 SW 24 35 13 19 1005.2 1005.1 0.0
28/05:30pm 33.7 30.5 15.3 33 11.5 WSW 26 32 14 17 1004.9 - 0.0
28/05:00pm 33.1 30.4 16.6 37 10.4 W 26 33 14 18 1004.7 - 0.0
28/04:30pm 33.9 31.2 15.6 33 11.5 W 24 30 13 16 1004.8 - 0.0
28/04:00pm 34.6 31.8 14.2 29 12.5 WSW 22 28 12 15 1004.8 - 0.0
28/03:30pm 34.8 31.3 14.5 29 12.5 SW 26 33 14 18 1005.0 - 0.0
28/03:00pm 36.0 32.1 13.3 25 13.9 WSW 26 32 14 17 1005.0 1004.9 0.0
28/02:30pm 36.4 32.3 13.7 25 13.9 WSW 28 35 15 19 1005.3 - 0.0
28/02:00pm 36.6 33.1 13.3 24 14.2 WSW 24 32 13 17 1005.4 - 0.0
28/01:30pm 36.8 33.3 13.3 24 14.4 WSW 24 32 13 17 1005.7 - 0.0
28/01:00pm 37.7 34.8 12.8 22 15.2 WSW 20 30 11 16 1005.9 - 0.0
28/12:30pm 36.9 34.3 13.2 24 14.5 W 19 30 10 16 1006.2 - 0.0
28/12:00pm 36.2 32.8 12.6 24 14.3 W 22 30 12 16 1006.5 1006.4 0.0
28/11:30am 37.4 35.8 11.5 21 15.5 W 11 19 6 10 1006.7 - 0.0
28/11:00am 37.3 35.5 10.8 20 15.7 W 11 22 6 12 1007.1 - 0.0
28/10:30am 35.7 34.4 11.2 22 14.5 NNW 9 17 5 9 1007.5 - 0.0
28/10:00am 34.0 33.2 11.2 25 13.4 E 6 11 3 6 1007.7 - 0.0
28/09:30am 33.0 31.7 11.1 26 12.8 WSW 9 17 5 9 1007.9 - 0.0
28/09:00am 32.0 30.7 11.3 28 12.1 W 9 11 5 6 1008.1 1008.0 0.0
28/08:30am 31.8 30.0 10.7 27 12.2 WNW 11 17 6 9 1008.0 - 0.0
28/08:00am 30.5 28.7 10.9 29 11.3 W 11 15 6 8 1007.9 - 0.0
28/07:30am 29.2 25.5 9.3 29 11.1 ENE 19 22 10 12 1007.3 - 0.0
28/07:00am 27.9 23.4 8.5 29 10.6 ENE 22 26 12 14 1006.9 - 0.0
28/06:30am 26.9 22.4 8.6 31 10.0 ENE 22 30 12 16 1006.6 - 0.0
28/06:00am 26.1 21.1 8.1 32 9.7 ENE 24 32 13 17 1006.4 1006.3 0.0
28/05:30am 26.8 20.4 7.0 28 10.5 ENE 30 39 16 21 1005.9 - 0.0
28/05:00am 26.9 20.9 7.2 28 10.5 ENE 28 33 15 18 1005.6 - 0.0
28/04:30am 26.9 21.4 7.5 29 10.4 ENE 26 35 14 19 1005.2 - 0.0
28/04:00am 27.5 21.0 6.5 26 11.1 ENE 30 39 16 21 1004.9 - 0.0
28/03:30am 27.3 20.3 6.7 27 10.9 E 33 44 18 24 1004.6 - 0.0
28/03:25am 27.3 19.1 6.4 26 11.0 E 39 44 21 24 1004.6 - 0.0
28/03:00am 28.0 21.4 6.2 25 11.5 ENE 30 37 16 20 1004.9 1004.8 0.0
28/02:41am 28.5 20.9 5.9 24 11.8 E 35 54 19 29 1004.6 - 0.0
28/02:30am 28.7 22.3 5.3 22 12.1 E 28 37 15 20 1004.6 - 0.0
28/02:00am 29.2 21.9 4.6 21 12.7 E 32 44 17 24 1004.6 - 0.0
28/01:30am 29.7 22.0 3.6 19 13.2 E 33 41 18 22 1004.5 - 0.0
28/01:00am 29.6 22.6 4.1 19 13.0 E 30 41 16 22 1004.8 - 0.0
28/12:30am 30.0 23.3 3.8 19 13.4 E 28 39 15 21 1004.9 - 0.0
28/12:23am 28.2 22.5 5.0 22 11.9 E 24 35 13 19 1004.9 - 0.0
28/12:00am 22.7 22.0 11.9 50 6.1 NNW 7 9 4 5 1005.3 1005.2 0.0
 
Date/Time
WST
Temp
°C
App
Temp
°C
Dew
Point
Rel
Hum
%
Delta-T
°C
Wind Press
QNH
hPa
Press
MSL
hPa
Rain
since 9 am
mm
Dir
 
Spd
km/h
Gust
km/h
Spd
kts
Gust
kts
27/11:30pm 23.2 23.9 12.3 50 6.2 CALM 0 0 0 0 1005.4 - 0.0
27/11:00pm 24.4 23.7 11.5 44 7.3 S 6 9 3 5 1005.6 - 0.0
27/10:30pm 26.4 25.5 11.3 39 8.6 SSW 7 9 4 5 1005.9 - 0.0
27/10:00pm 28.0 26.3 12.4 38 9.1 S 13 15 7 8 1005.9 - 0.0

Other Formats:

Comma delimited format used in spreadsheet applications
http://www.bom.gov.au/fwo/IDW60801/IDW60801.94610.axf

JavaScript Object Notation format (JSON) in row-major order
http://www.bom.gov.au/fwo/IDW60801/IDW60801.94610.json